Time;durP1;ratioP1;P1;durP2;ratioP2;P2;SDS_P1;SDS_P2;PMS_P1;PMS_P2;Temp;Humidity;BMP_temperature;BMP_pressure;BME280_temperature;BME280_humidity;BME280_pressure;Samples;Min_cycle;Max_cycle;Signal;HPM_P1;HPM_P2
2023/07/18 00:09:25;;;;;;;6.40;3.90;;;;;;;20.33;89.97;98827.09;102586;1292;600064;-20
2023/07/18 00:11:53;;;;;;;6.60;4.60;;;;;;;20.14;89.46;98827.39;104750;1266;61212;-19
2023/07/18 00:22:00;;;;;;;6.70;4.20;;;;;;;20.13;89.95;98790.53;102609;1292;600138;-19
2023/07/18 00:24:28;;;;;;;5.10;3.70;;;;;;;19.81;90.74;98789.55;104844;1266;61146;-19
2023/07/18 00:26:57;;;;;;;4.30;2.60;;;;;;;19.67;91.84;98797.04;104854;1266;61219;-19
2023/07/18 00:29:25;;;;;;;8.10;3.50;;;;;;;19.94;91.02;98786.09;104851;1270;71040;-18
2023/07/18 00:31:53;;;;;;;8.20;3.10;;;;;;;20.03;90.23;98786.80;104820;1267;74297;-18
2023/07/18 00:34:21;;;;;;;4.60;3.10;;;;;;;19.88;90.33;98779.30;108588;1266;71432;-19
2023/07/18 00:36:54;;;;;;;3.40;3.00;;;;;;;19.55;91.67;98774.52;106737;1262;2632930;-19
2023/07/18 00:39:23;;;;;;;3.60;2.30;;;;;;;19.40;93.51;98772.65;109194;1256;58831;-19
2023/07/18 00:41:52;;;;;;;4.90;3.00;;;;;;;19.79;92.61;98760.77;109582;1252;72396;-20
2023/07/18 00:44:21;;;;;;;6.40;2.70;;;;;;;19.88;91.26;98746.77;109323;1252;74447;-19
2023/07/18 00:46:49;;;;;;;4.80;2.90;;;;;;;19.64;91.91;98743.15;109586;1252;71322;-20
2023/07/18 00:49:16;;;;;;;3.70;2.20;;;;;;;19.28;94.61;98749.38;109556;1253;59388;-20
2023/07/18 00:51:44;;;;;;;5.70;2.80;;;;;;;19.81;93.49;98755.83;109394;1255;60004;-20
2023/07/18 00:54:12;;;;;;;4.40;2.60;;;;;;;20.11;90.18;98745.23;109348;1253;71763;-20
2023/07/18 00:56:39;;;;;;;3.70;3.40;;;;;;;19.74;90.81;98738.79;109389;1252;74354;-19
2023/07/18 00:59:07;;;;;;;6.50;2.90;;;;;;;19.23;94.31;98738.57;109302;1252;71813;-19
2023/07/18 01:01:34;;;;;;;4.90;2.50;;;;;;;19.20;95.96;98733.10;109301;1253;60359;-19
2023/07/18 01:04:02;;;;;;;3.30;2.20;;;;;;;19.99;94.37;98721.89;109606;1253;58856;-19
2023/07/18 01:06:30;;;;;;;3.70;2.80;;;;;;;20.14;90.02;98711.25;109499;1253;73200;-19
2023/07/18 01:08:57;;;;;;;4.60;2.80;;;;;;;20.08;89.89;98712.73;109519;1252;73315;-19
2023/07/18 01:11:25;;;;;;;4.70;2.40;;;;;;;19.80;90.92;98707.90;109524;1252;72720;-20
2023/07/18 01:13:52;;;;;;;5.60;2.90;;;;;;;19.76;91.26;98704.75;109604;1252;60023;-19
2023/07/18 01:16:20;;;;;;;3.90;2.80;;;;;;;19.94;90.85;98700.08;109564;1252;58816;-20
2023/07/18 01:18:49;;;;;;;3.40;2.70;;;;;;;19.99;90.73;98698.69;109392;1252;71763;-19
2023/07/18 01:21:18;;;;;;;5.80;3.00;;;;;;;20.00;89.92;98700.81;109500;1253;73051;-20
2023/07/18 01:23:47;;;;;;;2.60;2.00;;;;;;;19.85;90.67;98700.09;109336;1252;72222;-19
2023/07/18 01:26:14;;;;;;;4.00;2.50;;;;;;;20.20;89.84;98702.05;109452;1257;60053;-20
2023/07/18 01:28:42;;;;;;;3.80;2.80;;;;;;;20.28;88.75;98694.15;109623;1252;58765;-19
2023/07/18 01:31:10;;;;;;;5.00;3.00;;;;;;;20.07;89.98;98681.93;109577;1253;71629;-19
2023/07/18 01:33:42;;;;;;;5.80;3.70;;;;;;;19.55;92.92;98677.22;109494;1253;73204;-19
2023/07/18 01:36:10;;;;;;;6.90;2.60;;;;;;;19.22;95.71;98670.88;109240;1253;72694;-19
2023/07/18 01:38:37;;;;;;;4.10;3.20;;;;;;;19.39;95.94;98658.43;109544;1253;60036;-19
2023/07/18 01:41:07;;;;;;;6.80;3.10;;;;;;;19.48;95.12;98649.83;109542;1252;60220;-19
2023/07/18 01:43:37;;;;;;;4.90;3.40;;;;;;;19.32;96.23;98652.23;109482;1254;72964;-19
2023/07/18 01:46:07;;;;;;;4.40;2.70;;;;;;;19.34;96.86;98643.16;109589;1252;74191;-20
2023/07/18 01:48:36;;;;;;;3.60;2.70;;;;;;;19.48;96.30;98631.27;109405;1253;72667;-19
2023/07/18 01:51:06;;;;;;;3.70;3.10;;;;;;;19.59;95.06;98618.30;109324;1254;58919;-19
2023/07/18 01:53:34;;;;;;;4.20;3.20;;;;;;;19.39;96.73;98623.45;109311;1253;60059;-19
2023/07/18 01:56:01;;;;;;;2.80;2.50;;;;;;;19.46;96.40;98638.80;109266;1253;73114;-19
2023/07/18 01:58:29;;;;;;;4.10;2.70;;;;;;;20.04;95.03;98661.42;109340;1253;74355;-19
2023/07/18 02:00:56;;;;;;;6.40;3.40;;;;;;;20.50;90.64;98671.69;109269;1253;71483;-19
2023/07/18 02:03:24;;;;;;;3.60;2.90;;;;;;;20.45;89.43;98684.20;109220;1255;60105;-19
2023/07/18 02:05:52;;;;;;;10.00;3.30;;;;;;;19.87;92.28;98733.42;109450;1253;60049;-19
2023/07/18 02:08:19;;;;;;;4.10;2.90;;;;;;;19.57;96.59;98750.48;109423;1253;72086;-19
2023/07/18 02:10:47;;;;;;;4.10;3.30;;;;;;;20.11;94.90;98714.77;109462;1253;73396;-19
2023/07/18 02:13:14;;;;;;;4.00;3.40;;;;;;;19.96;93.41;98681.88;109260;1253;71679;-19
2023/07/18 02:15:42;;;;;;;4.70;3.80;;;;;;;20.09;93.52;98684.72;109404;1253;60079;-19
2023/07/18 02:18:09;;;;;;;3.90;3.50;;;;;;;20.01;93.52;98682.20;109431;1256;60040;-19
2023/07/18 02:20:37;;;;;;;3.00;2.40;;;;;;;20.05;93.14;98676.77;109454;1253;71838;-19
2023/07/18 02:23:07;;;;;;;4.10;3.20;;;;;;;20.32;91.65;98672.12;109303;1253;74282;-19
2023/07/18 02:25:38;;;;;;;6.20;3.20;;;;;;;20.71;89.49;98672.60;109425;1253;71399;-19
2023/07/18 02:28:07;;;;;;;4.30;3.50;;;;;;;20.71;88.81;98672.45;109415;1253;60088;-19
2023/07/18 02:30:36;;;;;;;3.50;3.20;;;;;;;20.49;89.23;98673.15;109278;1253;58757;-19
2023/07/18 02:33:06;;;;;;;6.60;2.50;;;;;;;20.30;90.13;98672.94;109182;1253;71823;-19
2023/07/18 02:35:38;;;;;;;4.30;2.60;;;;;;;20.71;89.51;98665.24;109476;1253;74215;-19
2023/07/18 02:38:06;;;;;;;4.00;2.70;;;;;;;20.99;87.39;98658.71;109320;1253;71384;-19
2023/07/18 02:40:33;;;;;;;3.70;3.20;;;;;;;20.72;87.35;98656.94;109447;1255;60091;-19
2023/07/18 02:43:02;;;;;;;3.70;2.90;;;;;;;20.58;88.07;98658.21;109401;1257;59153;-19
2023/07/18 02:45:30;;;;;;;2.60;2.10;;;;;;;20.42;88.85;98660.80;109292;1253;73139;-19
2023/07/18 02:47:59;;;;;;;2.40;2.20;;;;;;;20.84;88.48;98665.10;109266;1253;74314;-19
2023/07/18 02:50:26;;;;;;;6.30;2.80;;;;;;;21.27;85.80;98669.79;109363;1253;71657;-19
2023/07/18 02:52:57;;;;;;;3.70;3.10;;;;;;;21.24;84.91;98669.27;109317;1253;60097;-19
2023/07/18 02:55:27;;;;;;;3.90;3.30;;;;;;;21.04;85.14;98661.56;109346;1253;59993;-19
2023/07/18 02:57:55;;;;;;;6.50;3.00;;;;;;;20.71;86.02;98658.16;109313;1253;73155;-19
2023/07/18 03:00:25;;;;;;;3.70;1.90;;;;;;;20.45;87.55;98657.64;109252;1253;74324;-19
2023/07/18 03:02:53;;;;;;;3.10;2.20;;;;;;;20.85;87.34;98657.42;109103;1258;71708;-19
2023/07/18 03:05:22;;;;;;;2.80;2.30;;;;;;;21.28;85.48;98656.84;109242;1255;59111;-19
2023/07/18 03:07:50;;;;;;;3.40;2.50;;;;;;;21.31;84.47;98664.98;109337;1253;60044;-19
2023/07/18 03:10:18;;;;;;;3.60;3.10;;;;;;;21.11;84.52;98674.36;109261;1253;71841;-19
2023/07/18 03:12:46;;;;;;;3.50;3.20;;;;;;;20.86;85.39;98683.64;109331;1253;73459;-19
2023/07/18 03:15:14;;;;;;;3.50;3.00;;;;;;;20.52;87.10;98695.37;109281;1253;71401;-19
2023/07/18 03:17:42;;;;;;;5.70;3.10;;;;;;;20.68;87.91;98687.48;109305;1256;60055;-19
2023/07/18 03:20:19;;;;;;;3.80;3.10;;;;;;;20.84;86.79;98685.08;109327;1253;58824;-19
2023/07/18 03:22:49;;;;;;;4.50;3.70;;;;;;;20.67;87.11;98693.73;109156;1253;72759;-19
2023/07/18 03:25:17;;;;;;;2.90;2.60;;;;;;;20.34;88.73;98699.92;109257;1253;74330;-19
2023/07/18 03:27:45;;;;;;;6.10;3.20;;;;;;;20.36;89.75;98707.07;109365;1253;71447;-19
2023/07/18 03:30:13;;;;;;;3.90;3.30;;;;;;;20.65;88.50;98707.23;109347;1253;60070;-19
2023/07/18 03:32:40;;;;;;;4.40;3.70;;;;;;;20.44;88.75;98705.92;109248;1253;58701;-19
2023/07/18 03:35:09;;;;;;;4.50;3.00;;;;;;;20.24;89.82;98707.92;109325;1253;73112;-19
2023/07/18 03:37:36;;;;;;;8.80;2.90;;;;;;;20.08;91.15;98719.27;109348;1253;74498;-19
2023/07/18 03:40:06;;;;;;;3.80;3.00;;;;;;;20.45;89.94;98724.23;109320;1253;72625;-19
2023/07/18 03:42:33;;;;;;;4.00;3.20;;;;;;;20.41;89.45;98726.38;109216;1256;60071;-19
2023/07/18 03:45:01;;;;;;;5.80;3.40;;;;;;;20.35;89.40;98727.16;109377;1253;58769;-20
2023/07/18 03:47:29;;;;;;;3.50;2.50;;;;;;;20.28;89.60;98727.63;109349;1253;73038;-20
2023/07/18 03:49:57;;;;;;;4.40;3.10;;;;;;;20.46;89.18;98730.54;109361;1254;74275;-19
2023/07/18 03:52:24;;;;;;;4.10;3.10;;;;;;;20.77;87.44;98729.77;109308;1254;73122;-19
2023/07/18 03:54:52;;;;;;;3.80;2.90;;;;;;;20.77;86.65;98732.70;109193;1256;58905;-19
2023/07/18 03:57:19;;;;;;;4.50;3.30;;;;;;;20.51;87.63;98736.17;109337;1254;58717;-19
2023/07/18 03:59:47;;;;;;;3.50;2.70;;;;;;;20.33;88.95;98742.25;109300;1254;73033;-20
2023/07/18 04:02:14;;;;;;;4.00;2.90;;;;;;;20.59;88.89;98739.63;109319;1253;73052;-19
2023/07/18 04:04:42;;;;;;;3.50;3.00;;;;;;;20.76;87.48;98723.02;109184;1254;72722;-19
2023/07/18 04:07:09;;;;;;;3.60;3.20;;;;;;;20.63;87.84;98712.79;109279;1255;59073;-22
2023/07/18 04:09:37;;;;;;;6.00;3.60;;;;;;;20.43;88.41;98707.31;109307;1254;58728;-22
2023/07/18 04:12:05;;;;;;;3.60;3.10;;;;;;;20.15;90.03;98698.94;109313;1254;73015;-22
2023/07/18 04:14:35;;;;;;;3.40;3.10;;;;;;;20.30;90.19;98706.77;109138;1254;74410;-22
2023/07/18 04:17:03;;;;;;;4.30;3.60;;;;;;;20.38;88.89;98705.25;109261;1259;72683;-22
2023/07/18 04:19:31;;;;;;;4.80;3.60;;;;;;;20.11;90.13;98706.88;109304;1254;58868;-22
2023/07/18 04:21:58;;;;;;;5.40;3.50;;;;;;;20.01;91.03;98712.20;109116;1256;58753;-22
2023/07/18 04:24:26;;;;;;;6.70;3.30;;;;;;;20.45;89.91;98716.54;109023;1256;73067;-22
2023/07/18 04:26:53;;;;;;;7.90;3.70;;;;;;;20.71;88.21;98714.11;109178;1256;73048;-22
2023/07/18 04:29:21;;;;;;;4.00;3.50;;;;;;;20.62;87.81;98702.49;109060;1256;71465;-21
2023/07/18 04:31:48;;;;;;;6.50;3.80;;;;;;;20.40;88.63;98701.64;109049;1257;58863;-21
2023/07/18 04:34:16;;;;;;;3.40;2.80;;;;;;;20.28;89.55;98698.31;109179;1256;58740;-22
2023/07/18 04:36:44;;;;;;;3.50;3.20;;;;;;;20.67;88.88;98697.14;109075;1256;73808;-22
2023/07/18 04:39:12;;;;;;;3.40;3.00;;;;;;;20.95;86.78;98688.48;109185;1256;74320;-22
2023/07/18 04:41:39;;;;;;;4.70;3.40;;;;;;;20.83;86.69;98679.77;109035;1256;72720;-22
2023/07/18 04:44:22;;;;;;;4.00;3.30;;;;;;;20.70;87.24;98677.52;109179;1256;59127;-22
2023/07/18 04:46:50;;;;;;;2.70;2.40;;;;;;;20.53;87.82;98673.66;109037;1256;60063;-22
2023/07/18 04:49:19;;;;;;;4.50;3.00;;;;;;;20.88;87.45;98667.28;109148;1256;73856;-23
2023/07/18 04:51:46;;;;;;;4.50;3.20;;;;;;;21.08;85.83;98671.17;109113;1256;73126;-22
2023/07/18 04:54:14;;;;;;;5.10;3.50;;;;;;;20.93;85.81;98663.67;109012;1256;71388;-22
2023/07/18 04:56:41;;;;;;;5.50;3.70;;;;;;;20.65;87.12;98662.95;109028;1256;58859;-22
2023/07/18 04:59:09;;;;;;;3.80;3.00;;;;;;;20.45;88.82;98665.24;109072;1256;60264;-22
2023/07/18 05:01:39;;;;;;;5.60;3.40;;;;;;;20.78;88.92;98658.52;109054;1260;73128;-22
2023/07/18 05:04:07;;;;;;;4.10;3.70;;;;;;;21.06;86.89;98656.47;109039;1256;72638;-22
2023/07/18 05:06:35;;;;;;;6.00;3.50;;;;;;;20.98;86.60;98654.92;109089;1256;71450;-23
2023/07/18 05:09:03;;;;;;;5.30;4.10;;;;;;;20.67;87.97;98657.14;109046;1256;60031;-22
2023/07/18 05:11:31;;;;;;;7.00;3.40;;;;;;;20.39;89.77;98661.08;109076;1261;59051;-23
2023/07/18 05:14:01;;;;;;;5.30;3.60;;;;;;;20.74;89.77;98658.83;109058;1256;73861;-23
2023/07/18 05:16:29;;;;;;;6.80;3.90;;;;;;;20.86;88.20;98661.55;109093;1256;74317;-23
2023/07/18 05:18:57;;;;;;;4.20;3.80;;;;;;;20.83;88.75;98659.10;109053;1256;71303;-23
2023/07/18 05:21:25;;;;;;;4.40;4.00;;;;;;;20.66;89.95;98657.66;109181;1256;59139;-23
2023/07/18 05:23:52;;;;;;;3.20;2.90;;;;;;;20.64;91.39;98654.89;109303;1254;58997;-23
2023/07/18 05:26:20;;;;;;;6.90;3.50;;;;;;;20.95;89.91;98647.91;109256;1255;74254;-23
2023/07/18 05:28:47;;;;;;;4.10;3.60;;;;;;;21.27;88.39;98650.69;109271;1254;74309;-23
2023/07/18 05:31:15;;;;;;;3.70;3.30;;;;;;;21.33;88.02;98654.02;109229;1260;71739;-22
2023/07/18 05:33:44;;;;;;;5.20;4.30;;;;;;;21.13;88.70;98650.02;109039;1257;60053;-22
2023/07/18 05:36:11;;;;;;;3.70;3.00;;;;;;;20.87;89.57;98648.97;109269;1254;58717;-21
2023/07/18 05:38:39;;;;;;;3.80;3.40;;;;;;;21.19;88.70;98645.59;109159;1254;72983;-22
2023/07/18 05:41:06;;;;;;;6.50;4.00;;;;;;;21.36;86.92;98649.13;109307;1254;74171;-22
2023/07/18 05:43:34;;;;;;;5.20;3.50;;;;;;;21.15;88.39;98657.73;109255;1254;72151;-22
2023/07/18 05:46:02;;;;;;;4.80;3.90;;;;;;;21.02;89.71;98662.58;109233;1255;60186;-22
2023/07/18 05:48:30;;;;;;;4.70;3.30;;;;;;;20.92;90.59;98660.20;109272;1254;58780;-22
2023/07/18 05:51:00;;;;;;;4.70;3.70;;;;;;;21.28;88.78;98657.08;109207;1260;72526;-22
2023/07/18 05:53:27;;;;;;;5.30;4.40;;;;;;;21.40;87.62;98654.78;109205;1256;74422;-22
2023/07/18 05:55:55;;;;;;;10.30;4.40;;;;;;;21.22;88.55;98656.02;109071;1255;70648;-22
2023/07/18 05:58:23;;;;;;;4.90;3.60;;;;;;;20.87;90.02;98651.69;109092;1256;60066;-23
2023/07/18 06:00:50;;;;;;;4.50;3.90;;;;;;;20.92;91.20;98659.63;109206;1256;60258;-22
2023/07/18 06:03:18;;;;;;;4.10;3.70;;;;;;;21.24;89.17;98651.95;109167;1259;73837;-22
2023/07/18 06:05:52;;;;;;;8.10;4.60;;;;;;;21.58;88.50;98657.26;109226;1256;74449;-22
2023/07/18 06:08:21;;;;;;;7.00;4.60;;;;;;;21.61;88.17;98655.96;109003;1256;72787;-22
2023/07/18 06:10:56;;;;;;;5.30;3.50;;;;;;;21.53;87.78;98652.89;109137;1262;61665;-22
2023/07/18 06:13:24;;;;;;;6.40;4.00;;;;;;;21.86;87.19;98652.08;109107;1256;60059;-22
2023/07/18 06:15:52;;;;;;;4.40;4.00;;;;;;;22.18;84.98;98644.95;109188;1256;72853;-22
2023/07/18 06:18:19;;;;;;;5.50;4.20;;;;;;;22.07;84.24;98645.86;109103;1255;74368;-22
2023/07/18 06:20:48;;;;;;;5.90;4.30;;;;;;;21.90;85.52;98648.64;109196;1255;71793;-22
2023/07/18 06:23:16;;;;;;;5.20;3.50;;;;;;;21.95;87.35;98651.61;109078;1256;59612;-22
2023/07/18 06:25:43;;;;;;;4.50;4.10;;;;;;;22.32;84.54;98646.36;109241;1256;58908;-23
2023/07/18 06:28:11;;;;;;;4.40;4.00;;;;;;;22.70;83.81;98652.05;109221;1256;72651;-22
2023/07/18 06:30:39;;;;;;;5.00;4.20;;;;;;;22.73;83.61;98648.27;109100;1257;74312;-22
2023/07/18 06:33:06;;;;;;;6.20;4.70;;;;;;;22.54;82.68;98647.45;109079;1255;72786;-22
2023/07/18 06:35:35;;;;;;;4.40;3.50;;;;;;;22.38;83.48;98651.11;109065;1256;58767;-23
2023/07/18 06:38:02;;;;;;;4.30;3.80;;;;;;;22.61;83.22;98650.55;109192;1256;59164;-23
2023/07/18 06:40:30;;;;;;;5.10;4.00;;;;;;;22.95;82.28;98655.96;109284;1256;73856;-23
2023/07/18 06:42:59;;;;;;;8.70;4.70;;;;;;;23.05;80.32;98653.48;109098;1256;74536;-23
2023/07/18 06:45:26;;;;;;;6.20;4.50;;;;;;;22.95;81.48;98665.23;109192;1256;72853;-23
2023/07/18 06:47:54;;;;;;;5.30;4.10;;;;;;;22.80;81.60;98657.16;109057;1262;60071;-23
2023/07/18 06:50:24;;;;;;;4.30;3.90;;;;;;;23.20;80.45;98665.80;109188;1257;58795;-24
2023/07/18 06:52:53;;;;;;;6.20;3.80;;;;;;;23.61;80.18;98667.54;109096;1257;72552;-24
2023/07/18 06:55:24;;;;;;;4.10;3.70;;;;;;;23.70;76.75;98659.52;109110;1257;74316;-24
2023/07/18 06:57:54;;;;;;;4.20;3.80;;;;;;;23.45;75.60;98663.80;109021;1258;71163;-23
2023/07/18 07:00:24;;;;;;;5.00;3.60;;;;;;;23.43;76.81;98669.11;109073;1256;60068;-23
2023/07/18 07:02:54;;;;;;;4.60;3.30;;;;;;;23.59;77.85;98672.17;109065;1256;58748;-24
2023/07/18 07:05:24;;;;;;;4.90;3.30;;;;;;;24.00;76.01;98671.54;109124;1257;72541;-23
2023/07/18 07:07:54;;;;;;;5.10;3.50;;;;;;;24.37;74.10;98668.86;109086;1256;74446;-23
2023/07/18 07:10:24;;;;;;;5.60;3.40;;;;;;;24.39;72.22;98671.46;109010;1256;73807;-23
2023/07/18 07:12:54;;;;;;;3.60;3.00;;;;;;;24.43;72.27;98669.92;109008;1256;58886;-23
2023/07/18 07:15:27;;;;;;;4.00;3.60;;;;;;;24.34;71.87;98674.00;109106;1256;60006;-23
2023/07/18 07:17:56;;;;;;;3.80;3.50;;;;;;;24.21;72.78;98671.15;109036;1257;73859;-23
2023/07/18 07:20:28;;;;;;;3.70;3.30;;;;;;;24.17;73.05;98673.04;109125;1257;74341;-23
2023/07/18 07:22:57;;;;;;;3.90;3.20;;;;;;;24.29;72.22;98677.85;109019;1256;70350;-23
2023/07/18 07:25:29;;;;;;;3.20;2.80;;;;;;;24.37;71.78;98679.61;109020;1257;59186;-23
2023/07/18 07:27:59;;;;;;;4.10;2.40;;;;;;;24.47;70.89;98678.35;109104;1255;59689;-23
2023/07/18 07:30:29;;;;;;;4.50;3.50;;;;;;;24.98;67.61;98678.77;109025;1256;73928;-23
2023/07/18 07:32:59;;;;;;;3.50;3.20;;;;;;;25.21;67.82;98688.89;109024;1263;73113;-23
2023/07/18 07:35:29;;;;;;;3.90;3.30;;;;;;;25.21;67.55;98692.10;109055;1257;72506;-22
2023/07/18 07:37:59;;;;;;;3.70;3.30;;;;;;;25.25;68.74;98692.27;109093;1256;58807;-22
2023/07/18 07:40:29;;;;;;;5.10;3.20;;;;;;;25.08;65.90;98687.58;109037;1256;59165;-22
2023/07/18 07:43:00;;;;;;;3.90;3.50;;;;;;;24.80;68.20;98704.59;109037;1257;72001;-22
2023/07/18 07:45:29;;;;;;;5.00;3.40;;;;;;;24.76;69.47;98706.64;109113;1257;73208;-23
2023/07/18 07:47:59;;;;;;;6.30;3.40;;;;;;;24.72;70.81;98709.60;109053;1256;72693;-23
2023/07/18 07:58:04;;;;;;;4.50;3.70;;;;;;;24.47;70.79;98713.50;102583;1292;600134;-21
2023/07/18 08:00:32;;;;;;;5.00;3.80;;;;;;;24.51;69.39;98705.23;104737;1267;61190;-21
2023/07/18 08:02:59;;;;;;;5.30;3.60;;;;;;;24.45;69.58;98710.84;105585;1257;61129;-21
2023/07/18 08:05:28;;;;;;;4.90;4.00;;;;;;;24.27;69.46;98712.54;105573;1261;70947;-21
2023/07/18 08:15:33;;;;;;;5.30;3.80;;;;;;;24.99;66.39;98702.55;102662;1295;600105;-21
2023/07/18 08:18:01;;;;;;;4.30;3.60;;;;;;;25.01;65.95;98709.23;105631;1260;61173;-22
2023/07/18 08:28:06;;;;;;;6.10;3.80;;;;;;;25.22;65.08;98707.45;102611;1292;600240;-21
2023/07/18 08:30:34;;;;;;;5.20;4.20;;;;;;;25.11;65.15;98706.77;104838;1272;61200;-22
2023/07/18 08:33:02;;;;;;;6.00;3.70;;;;;;;24.99;64.93;98705.29;104817;1266;61147;-21
2023/07/18 08:35:29;;;;;;;10.70;4.30;;;;;;;25.02;65.71;98711.02;104806;1267;70979;-21
2023/07/18 08:45:37;;;;;;;7.10;4.60;;;;;;;25.07;63.75;98713.71;102677;1292;600215;-22
2023/07/18 08:48:05;;;;;;;4.50;3.90;;;;;;;25.09;63.56;98719.82;104917;1269;61245;-21
2023/07/18 08:50:33;;;;;;;5.30;4.20;;;;;;;25.25;64.56;98716.05;104798;1266;60950;-22
2023/07/18 08:53:01;;;;;;;5.70;3.60;;;;;;;25.36;62.50;98705.34;104899;1270;71020;-22
2023/07/18 09:03:12;;;;;;;5.20;3.70;;;;;;;25.59;59.82;98707.64;102670;1295;600133;-23
2023/07/18 09:05:40;;;;;;;5.60;3.40;;;;;;;25.67;60.27;98713.24;104894;1263;61063;-23
2023/07/18 09:08:07;;;;;;;6.00;3.70;;;;;;;25.72;60.11;98719.55;104869;1269;61127;-22
2023/07/18 09:10:35;;;;;;;5.90;3.80;;;;;;;25.68;59.25;98718.23;104882;1270;70926;-23
2023/07/18 09:13:04;;;;;;;6.60;4.00;;;;;;;25.34;59.25;98719.51;104865;1269;73081;-22
2023/07/18 09:15:33;;;;;;;6.00;3.70;;;;;;;25.56;58.52;98726.18;104792;1273;72682;-22
2023/07/18 09:18:03;;;;;;;10.00;4.30;;;;;;;25.70;56.69;98730.02;102904;1269;61166;-22
2023/07/18 09:20:31;;;;;;;7.00;3.70;;;;;;;25.63;56.86;98732.59;104925;1270;61264;-22
2023/07/18 09:23:03;;;;;;;5.90;3.60;;;;;;;25.86;58.02;98727.17;105223;1269;70937;-22
2023/07/18 09:25:31;;;;;;;6.10;4.00;;;;;;;25.51;57.92;98726.05;104910;1266;74288;-23
2023/07/18 09:27:59;;;;;;;4.00;3.60;;;;;;;25.45;58.69;98728.95;105211;1266;71475;-22
2023/07/18 09:30:36;;;;;;;6.00;4.00;;;;;;;25.53;57.64;98727.66;105213;1266;61189;-22
2023/07/18 09:33:05;;;;;;;5.90;3.80;;;;;;;25.63;55.06;98724.27;105059;1268;61203;-22
2023/07/18 09:35:37;;;;;;;6.70;3.90;;;;;;;25.77;56.30;98729.17;104853;1261;73009;-22
2023/07/18 09:38:06;;;;;;;8.40;3.70;;;;;;;25.85;55.79;98729.38;104877;1266;73320;-22
2023/07/18 09:40:34;;;;;;;7.20;4.00;;;;;;;25.91;54.55;98730.48;105110;1264;72681;-22
2023/07/18 09:43:02;;;;;;;6.20;3.60;;;;;;;25.85;54.06;98731.84;104894;1264;61075;-22
2023/07/18 09:45:30;;;;;;;6.60;3.90;;;;;;;25.90;54.44;98737.44;105216;1264;61029;-22
2023/07/18 09:47:57;;;;;;;7.40;3.70;;;;;;;26.16;54.79;98736.40;105051;1270;73015;-22
2023/07/18 09:50:26;;;;;;;6.10;3.80;;;;;;;26.15;53.28;98736.27;105175;1267;74311;-22
2023/07/18 09:52:54;;;;;;;7.60;3.60;;;;;;;26.25;54.23;98744.17;105137;1269;72709;-22
2023/07/18 09:55:24;;;;;;;7.60;4.00;;;;;;;26.48;54.29;98749.00;104853;1272;60995;-23
2023/07/18 09:57:55;;;;;;;4.50;3.70;;;;;;;26.88;54.29;98739.35;104910;1264;61144;-22
2023/07/18 10:00:23;;;;;;;8.70;3.90;;;;;;;26.78;52.76;98731.16;104865;1263;73076;-22
2023/07/18 10:02:54;;;;;;;4.50;3.70;;;;;;;26.90;54.25;98741.58;105142;1269;74298;-22
2023/07/18 10:05:22;;;;;;;5.10;4.10;;;;;;;27.06;54.47;98747.30;104916;1269;72480;-22
2023/07/18 10:07:49;;;;;;;6.30;4.30;;;;;;;26.92;52.40;98749.30;104785;1271;61192;-22
2023/07/18 10:10:17;;;;;;;7.40;4.80;;;;;;;26.57;53.18;98750.51;104962;1269;61149;-22
2023/07/18 10:20:33;;;;;;;5.60;4.20;;;;;;;26.52;53.31;98746.73;102699;1290;599907;-21
2023/07/18 10:23:05;;;;;;;6.30;4.30;;;;;;;26.30;52.30;98747.31;104793;1264;61123;-21
2023/07/18 10:25:32;;;;;;;7.20;4.10;;;;;;;26.78;52.38;98751.24;104876;1265;61138;-21
2023/07/18 10:28:00;;;;;;;9.60;4.60;;;;;;;27.21;49.02;98746.55;104863;1271;70947;-21
2023/07/18 10:37:52;;;;;;;5.90;3.40;;;;;;;26.04;49.79;98757.95;102664;1292;600254;-23
2023/07/18 10:40:33;;;;;;;;;;;;;;;26.18;50.43;98759.67;105303;1264;61174;-22
2023/07/18 10:43:01;;;;;;;8.70;3.90;;;;;;;26.54;50.41;98755.16;105333;1263;61109;-23
2023/07/18 10:45:34;;;;;;;8.70;4.00;;;;;;;26.83;49.81;98755.27;105479;1263;70969;-23
2023/07/18 10:48:13;;;;;;;5.80;4.20;;;;;;;26.81;48.69;98759.30;105190;1265;74266;-23
2023/07/18 10:58:41;;;;;;;9.90;4.00;;;;;;;26.25;50.02;98763.20;102593;1298;600154;-22
2023/07/18 11:01:08;;;;;;;8.00;4.70;;;;;;;26.14;50.46;98764.58;105247;1266;61209;-21
2023/07/18 11:03:37;;;;;;;9.10;4.10;;;;;;;26.58;50.77;98768.63;105261;1266;61201;-21
2023/07/18 11:06:05;;;;;;;6.30;4.30;;;;;;;26.98;48.12;98767.73;105360;1260;72208;-21
2023/07/18 11:08:32;;;;;;;4.90;3.80;;;;;;;27.29;47.19;98759.08;105166;1264;73217;-23
2023/07/18 11:11:03;;;;;;;7.20;4.00;;;;;;;27.04;45.84;98757.64;105065;1260;73282;-23
2023/07/18 11:13:31;;;;;;;14.50;6.90;;;;;;;26.97;47.25;98760.19;103178;1266;61187;-23
2023/07/18 11:16:06;;;;;;;7.40;3.90;;;;;;;27.04;46.25;98758.55;105296;1260;61163;-22
2023/07/18 11:18:38;;;;;;;5.20;4.00;;;;;;;26.87;46.13;98763.73;105228;1263;70967;-22
2023/07/18 11:21:06;;;;;;;10.80;5.00;;;;;;;26.88;47.12;98758.89;105609;1257;74304;-22
2023/07/18 11:23:35;;;;;;;6.40;4.00;;;;;;;27.11;47.85;98752.58;105650;1258;72677;-23
2023/07/18 11:26:29;;;;;;;6.10;4.00;;;;;;;27.06;46.85;98760.98;105440;1258;61101;-22
2023/07/18 11:28:59;;;;;;;7.90;3.60;;;;;;;26.67;44.51;98753.86;105574;1256;61098;-22
2023/07/18 11:31:31;;;;;;;6.60;3.50;;;;;;;26.68;44.39;98762.05;105642;1260;73089;-22
2023/07/18 11:34:02;;;;;;;8.40;4.60;;;;;;;26.77;43.92;98761.30;105597;1260;74309;-22
2023/07/18 11:36:31;;;;;;;12.00;5.10;;;;;;;26.86;43.59;98764.37;105181;1260;72641;-23
2023/07/18 11:39:03;;;;;;;6.50;3.80;;;;;;;26.80;44.32;98760.50;105445;1260;61132;-22
2023/07/18 11:41:43;;;;;;;7.80;4.00;;;;;;;26.91;45.67;98762.91;105530;1261;61217;-22
2023/07/18 11:44:11;;;;;;;8.40;4.80;;;;;;;26.65;45.59;98759.38;105576;1257;73143;-23
2023/07/18 11:53:08;;;;;;;6.70;3.90;;;;;;;26.50;47.59;98772.70;102664;1292;600260;-22
2023/07/18 11:55:39;;;;;;;6.90;4.00;;;;;;;26.63;47.85;98776.21;104896;1266;61094;-22
2023/07/18 11:58:09;;;;;;;6.90;3.90;;;;;;;26.71;46.75;98776.26;104781;1273;61150;-22
2023/07/18 12:00:37;;;;;;;6.40;3.60;;;;;;;26.74;45.07;98776.42;104882;1264;72228;-22
2023/07/18 12:10:43;;;;;;;4.40;2.90;;;;;;;26.56;48.46;98774.67;102674;1302;599459;-22
2023/07/18 12:13:22;;;;;;;3.80;3.10;;;;;;;26.56;46.98;98775.44;104906;1267;61127;-22
2023/07/18 12:15:50;;;;;;;6.30;3.40;;;;;;;26.58;46.84;98771.78;104901;1267;61189;-22
2023/07/18 12:18:18;;;;;;;14.40;4.00;;;;;;;26.42;46.87;98767.40;105674;1260;71062;-21
2023/07/18 12:20:45;;;;;;;4.80;3.40;;;;;;;26.07;47.48;98767.75;105659;1259;73039;-21
2023/07/18 12:30:40;;;;;;;8.20;2.90;;;;;;;26.28;45.56;98772.10;102643;1292;600134;-23
2023/07/18 12:40:46;;;;;;;4.90;2.80;;;;;;;25.64;43.65;98770.08;102622;1293;600117;-22
2023/07/18 12:43:13;;;;;;;5.40;3.00;;;;;;;25.54;45.14;98778.75;104824;1269;61189;-22
2023/07/18 12:45:41;;;;;;;12.50;3.10;;;;;;;25.71;45.23;98777.48;104826;1267;61794;-22
2023/07/18 12:48:09;;;;;;;4.90;2.80;;;;;;;25.58;44.99;98781.55;104816;1272;72191;-22
2023/07/18 12:56:56;;;;;;;6.10;2.60;;;;;;;26.02;44.58;98776.05;102648;1294;600090;-22
2023/07/18 12:59:24;;;;;;;3.30;2.50;;;;;;;25.90;43.78;98772.59;104870;1270;61198;-22
2023/07/18 13:09:32;;;;;;;3.20;2.20;;;;;;;26.08;44.06;98781.84;102685;1292;600797;-22
2023/07/18 13:11:59;;;;;;;8.00;2.50;;;;;;;26.15;42.23;98774.27;104851;1266;61133;-22
2023/07/18 13:14:27;;;;;;;4.20;2.20;;;;;;;26.05;42.54;98777.39;104810;1270;61200;-22
2023/07/18 13:16:56;;;;;;;3.70;2.60;;;;;;;26.20;41.91;98773.27;104840;1266;71278;-22
2023/07/18 13:19:24;;;;;;;5.60;2.60;;;;;;;26.13;42.16;98770.48;104896;1266;74314;-23
2023/07/18 13:21:51;;;;;;;6.60;2.30;;;;;;;25.96;42.27;98770.77;104793;1268;73111;-23
2023/07/18 13:24:19;;;;;;;3.60;2.40;;;;;;;25.89;42.59;98770.52;102867;1268;2789246;-23
2023/07/18 13:26:47;;;;;;;4.00;2.20;;;;;;;26.03;43.88;98773.73;104951;1263;61051;-22
2023/07/18 13:29:15;;;;;;;3.10;2.20;;;;;;;26.04;41.88;98771.29;105046;1263;72299;-22
2023/07/18 13:31:43;;;;;;;7.40;2.30;;;;;;;25.86;42.27;98763.45;104968;1263;74362;-22